createdAt,value
2019-02-11T00:00:48.505Z,19.69
2019-02-11T00:01:46.194Z,19.69
2019-02-11T00:02:42.777Z,19.69
2019-02-11T00:03:39.369Z,19.69
2019-02-11T00:04:36.005Z,19.69
2019-02-11T00:05:32.600Z,19.69
2019-02-11T00:06:29.240Z,19.69
2019-02-11T00:07:25.932Z,19.69
2019-02-11T00:08:22.712Z,19.69
2019-02-11T00:09:19.434Z,19.62
2019-02-11T00:10:16.037Z,19.62
2019-02-11T00:11:12.666Z,19.62
2019-02-11T00:12:09.345Z,19.62
2019-02-11T00:13:10.730Z,19.62
2019-02-11T00:14:04.546Z,19.62
2019-02-11T00:15:01.173Z,19.62
2019-02-11T00:15:57.752Z,19.62
2019-02-11T00:16:54.345Z,19.62
2019-02-11T00:17:50.947Z,19.56
2019-02-11T00:18:47.530Z,19.56
2019-02-11T00:19:44.167Z,19.56
2019-02-11T00:20:41.106Z,19.56
2019-02-11T00:21:37.693Z,19.56
2019-02-11T00:22:34.298Z,19.56
2019-02-11T00:23:30.993Z,19.56
2019-02-11T00:24:27.677Z,19.56
2019-02-11T00:25:24.347Z,19.50
2019-02-11T00:26:20.945Z,19.50
2019-02-11T00:27:17.557Z,19.50
2019-02-11T00:28:14.154Z,19.50
2019-02-11T00:29:10.750Z,19.50
2019-02-11T00:30:07.373Z,19.50
2019-02-11T00:31:03.970Z,19.50
2019-02-11T00:32:00.602Z,19.50
2019-02-11T00:32:57.228Z,19.50
2019-02-11T00:33:53.996Z,19.50
2019-02-11T00:34:50.627Z,19.44
2019-02-11T00:35:47.205Z,19.44
2019-02-11T00:36:43.790Z,19.44
2019-02-11T00:37:40.388Z,19.44
2019-02-11T00:38:37.005Z,19.44
2019-02-11T00:39:33.613Z,19.44
2019-02-11T00:40:30.401Z,19.44
2019-02-11T00:41:27.029Z,19.44
2019-02-11T00:42:23.622Z,19.44
2019-02-11T00:43:20.206Z,19.37
2019-02-11T00:44:16.817Z,19.44
2019-02-11T00:45:13.426Z,19.37
2019-02-11T00:46:10.084Z,19.37
2019-02-11T00:47:06.844Z,19.37
2019-02-11T00:48:03.466Z,19.37
2019-02-11T00:49:00.161Z,19.37
2019-02-11T00:49:56.761Z,19.37
2019-02-11T00:50:53.399Z,19.37
2019-02-11T00:51:50.093Z,19.37
2019-02-11T00:52:46.710Z,19.37
2019-02-11T00:53:43.417Z,19.31
2019-02-11T00:54:40.028Z,19.31
2019-02-11T00:55:36.638Z,19.31
2019-02-11T00:56:33.236Z,19.31
2019-02-11T00:57:29.845Z,19.31
2019-02-11T00:58:26.514Z,19.31
2019-02-11T00:59:23.162Z,19.31
2019-02-11T01:00:19.787Z,19.31
2019-02-11T01:01:16.489Z,19.31
2019-02-11T01:02:13.096Z,19.31
2019-02-11T01:03:09.948Z,19.25
2019-02-11T01:04:06.553Z,19.25
2019-02-11T01:05:03.257Z,19.25
2019-02-11T01:05:59.940Z,19.25
2019-02-11T01:06:56.746Z,19.25
2019-02-11T01:07:53.382Z,19.25
2019-02-11T01:08:49.981Z,19.25
2019-02-11T01:09:46.566Z,19.25
2019-02-11T01:10:43.155Z,19.25
2019-02-11T01:11:39.742Z,19.25
2019-02-11T01:12:36.329Z,19.25
2019-02-11T01:13:33.030Z,19.19
2019-02-11T01:14:29.610Z,19.19
2019-02-11T01:15:26.309Z,19.19
2019-02-11T01:16:23.017Z,19.19
2019-02-11T01:17:19.606Z,19.19
2019-02-11T01:18:16.205Z,19.19
2019-02-11T01:19:12.792Z,19.19
2019-02-11T01:20:09.390Z,19.19
2019-02-11T01:21:06.082Z,19.19
2019-02-11T01:22:02.824Z,19.19
2019-02-11T01:22:59.510Z,19.12
2019-02-11T01:23:56.109Z,19.12
2019-02-11T01:24:53.041Z,19.12
2019-02-11T01:25:49.668Z,19.12
2019-02-11T01:26:46.283Z,19.12
2019-02-11T01:27:42.898Z,19.12
2019-02-11T01:28:39.560Z,19.12
2019-02-11T01:29:36.138Z,19.12
2019-02-11T01:30:32.838Z,19.12
2019-02-11T01:31:29.488Z,19.12
2019-02-11T01:32:26.090Z,19.12
2019-02-11T01:33:22.704Z,19.12
2019-02-11T01:34:19.304Z,19.12
2019-02-11T01:35:16.193Z,19.06
2019-02-11T01:36:12.810Z,19.06
2019-02-11T01:37:09.442Z,19.06
2019-02-11T01:38:06.047Z,19.06
2019-02-11T01:39:03.830Z,19.06
2019-02-11T01:40:00.425Z,19.06
2019-02-11T01:40:57.109Z,19.06
2019-02-11T01:41:53.716Z,19.06
2019-02-11T01:42:50.357Z,19.06
2019-02-11T01:43:46.977Z,19.06
2019-02-11T01:44:43.580Z,19.06
2019-02-11T01:45:40.223Z,19.06
2019-02-11T01:46:36.952Z,19.00
2019-02-11T01:47:33.696Z,19.00
2019-02-11T01:48:30.504Z,19.00
2019-02-11T01:49:27.217Z,19.00
2019-02-11T01:50:23.813Z,19.00
2019-02-11T01:51:20.406Z,19.00
2019-02-11T01:52:17.006Z,19.00
2019-02-11T01:53:13.615Z,19.00
2019-02-11T01:54:10.496Z,19.00
2019-02-11T01:55:07.101Z,19.00
2019-02-11T01:56:03.697Z,19.00
2019-02-11T01:57:00.288Z,19.00
2019-02-11T01:57:56.894Z,19.00
2019-02-11T01:58:53.533Z,19.00
2019-02-11T01:59:50.237Z,18.94
2019-02-11T02:00:46.852Z,18.94
2019-02-11T02:01:43.498Z,18.94
2019-02-11T02:02:40.090Z,18.94
2019-02-11T02:03:36.708Z,18.94
2019-02-11T02:04:33.302Z,18.94
2019-02-11T02:05:31.621Z,18.94
2019-02-11T02:06:28.217Z,18.94
2019-02-11T02:07:24.830Z,18.94
2019-02-11T02:08:21.515Z,18.94
2019-02-11T02:09:18.211Z,18.94
2019-02-11T02:10:14.869Z,18.87
2019-02-11T02:11:11.551Z,18.87
2019-02-11T02:12:08.154Z,18.87
2019-02-11T02:13:04.785Z,18.87
2019-02-11T02:14:01.490Z,18.87
2019-02-11T02:14:58.070Z,18.87
2019-02-11T02:15:54.665Z,18.87
2019-02-11T02:16:51.256Z,18.87
2019-02-11T02:17:47.847Z,18.87
2019-02-11T02:18:44.581Z,18.87
2019-02-11T02:19:41.263Z,18.87
2019-02-11T02:20:37.853Z,18.87
2019-02-11T02:21:34.455Z,18.87
2019-02-11T02:22:31.070Z,18.81
2019-02-11T02:23:27.685Z,18.87
2019-02-11T02:24:24.613Z,18.81
2019-02-11T02:25:21.219Z,18.81
2019-02-11T02:26:17.824Z,18.81
2019-02-11T02:27:14.509Z,18.81
2019-02-11T02:28:11.177Z,18.81
2019-02-11T02:29:07.910Z,18.81
2019-02-11T02:30:04.617Z,18.81
2019-02-11T02:31:01.319Z,18.81
2019-02-11T02:31:58.001Z,18.81
2019-02-11T02:32:54.656Z,18.81
2019-02-11T02:33:51.266Z,18.81
2019-02-11T02:34:47.891Z,18.81
2019-02-11T02:35:44.472Z,18.75
2019-02-11T02:36:41.053Z,18.75
2019-02-11T02:37:37.656Z,18.75
2019-02-11T02:38:34.249Z,18.75
2019-02-11T02:39:30.857Z,18.75
2019-02-11T02:40:27.697Z,18.75
2019-02-11T02:41:24.290Z,18.75
2019-02-11T02:42:20.883Z,18.75
2019-02-11T02:43:17.502Z,18.75
2019-02-11T02:44:14.077Z,18.75
2019-02-11T02:45:10.679Z,18.75
2019-02-11T02:46:07.276Z,18.75
2019-02-11T02:47:03.874Z,18.75
2019-02-11T02:48:01.017Z,18.69
2019-02-11T02:48:57.741Z,18.69
2019-02-11T02:49:54.324Z,18.69
2019-02-11T02:50:50.937Z,18.69
2019-02-11T02:51:47.529Z,18.69
2019-02-11T02:52:44.129Z,18.69
2019-02-11T02:53:40.723Z,18.69
2019-02-11T02:54:37.363Z,18.69
2019-02-11T02:55:34.005Z,18.69
2019-02-11T02:56:30.727Z,18.69
2019-02-11T02:57:27.332Z,18.69
2019-02-11T02:58:23.941Z,18.69
2019-02-11T02:59:20.549Z,18.69
2019-02-11T03:00:17.141Z,18.69
2019-02-11T03:01:13.770Z,18.69
2019-02-11T03:02:10.360Z,18.69
2019-02-11T03:03:06.946Z,18.62
2019-02-11T03:04:03.548Z,18.62
2019-02-11T03:05:00.404Z,18.62
2019-02-11T03:05:57.156Z,18.62
2019-02-11T03:06:53.753Z,18.62
2019-02-11T03:07:50.325Z,18.62
2019-02-11T03:08:47.025Z,18.62
2019-02-11T03:09:43.627Z,18.62
2019-02-11T03:10:40.209Z,18.62
2019-02-11T03:11:36.945Z,18.62
2019-02-11T03:12:33.630Z,18.62
2019-02-11T03:13:30.221Z,18.62
2019-02-11T03:14:26.835Z,18.62
2019-02-11T03:15:23.489Z,18.62
2019-02-11T03:16:20.109Z,18.62
2019-02-11T03:17:16.720Z,18.62
2019-02-11T03:18:13.425Z,18.56
2019-02-11T03:19:10.037Z,18.56
2019-02-11T03:20:06.624Z,18.56
2019-02-11T03:21:03.274Z,18.56
2019-02-11T03:21:59.960Z,18.56
2019-02-11T03:22:56.699Z,18.56
2019-02-11T03:23:53.339Z,18.56
2019-02-11T03:24:49.949Z,18.56
2019-02-11T03:25:46.641Z,18.56
2019-02-11T03:26:43.270Z,18.56
2019-02-11T03:27:39.950Z,18.56
2019-02-11T03:28:36.566Z,18.56
2019-02-11T03:29:33.158Z,18.56
2019-02-11T03:30:29.770Z,18.56
2019-02-11T03:31:26.428Z,18.56
2019-02-11T03:32:23.306Z,18.56
2019-02-11T03:33:19.911Z,18.56
2019-02-11T03:34:16.598Z,18.50
2019-02-11T03:35:13.417Z,18.50
2019-02-11T03:36:10.077Z,18.50
2019-02-11T03:37:06.724Z,18.50
2019-02-11T03:38:03.330Z,18.50
2019-02-11T03:39:00.165Z,18.50
2019-02-11T03:39:56.752Z,18.50
2019-02-11T03:40:53.375Z,18.50
2019-02-11T03:41:50.065Z,18.50
2019-02-11T03:42:46.697Z,18.50
2019-02-11T03:43:43.281Z,18.50
2019-02-11T03:44:39.869Z,18.50
2019-02-11T03:45:36.483Z,18.50
2019-02-11T03:46:33.073Z,18.50
2019-02-11T03:47:29.801Z,18.44
2019-02-11T03:48:26.406Z,18.44
2019-02-11T03:49:22.992Z,18.44
2019-02-11T03:50:19.642Z,18.44
2019-02-11T03:51:16.216Z,18.44
2019-02-11T03:52:12.829Z,18.44
2019-02-11T03:53:09.437Z,18.44
2019-02-11T03:54:06.036Z,18.44
2019-02-11T03:55:02.734Z,18.44
2019-02-11T03:55:59.474Z,18.44
2019-02-11T03:56:56.110Z,18.44
2019-02-11T03:57:52.786Z,18.44
2019-02-11T03:58:49.366Z,18.44
2019-02-11T03:59:46.228Z,18.44
2019-02-11T04:00:42.807Z,18.44
2019-02-11T04:01:39.473Z,18.44
2019-02-11T04:02:36.169Z,18.44
2019-02-11T04:03:32.771Z,18.37
2019-02-11T04:04:29.502Z,18.37
2019-02-11T04:05:26.088Z,18.37
2019-02-11T04:06:22.690Z,18.37
2019-02-11T04:07:19.288Z,18.37
2019-02-11T04:08:15.898Z,18.37
2019-02-11T04:09:12.523Z,18.37
2019-02-11T04:10:09.108Z,18.37
2019-02-11T04:11:05.717Z,18.37
2019-02-11T04:12:02.411Z,18.37
2019-02-11T04:12:59.009Z,18.37
2019-02-11T04:13:55.725Z,18.37
2019-02-11T04:14:52.364Z,18.37
2019-02-11T04:15:48.953Z,18.37
2019-02-11T04:16:45.548Z,18.37
2019-02-11T04:17:42.149Z,18.37
2019-02-11T04:18:38.803Z,18.37
2019-02-11T04:19:35.609Z,18.37
2019-02-11T04:20:32.279Z,18.37
2019-02-11T04:21:28.929Z,18.31
2019-02-11T04:22:25.995Z,18.31
2019-02-11T04:23:22.609Z,18.31
2019-02-11T04:24:19.410Z,18.31
2019-02-11T04:25:16.073Z,18.31
2019-02-11T04:26:12.669Z,18.31
2019-02-11T04:27:09.298Z,18.31
2019-02-11T04:28:05.885Z,18.31
2019-02-11T04:29:02.610Z,18.31
2019-02-11T04:29:59.209Z,18.31
2019-02-11T04:30:55.900Z,18.31
2019-02-11T04:31:52.498Z,18.31
2019-02-11T04:32:49.185Z,18.31
2019-02-11T04:33:45.788Z,18.31
2019-02-11T04:34:42.466Z,18.31
2019-02-11T04:35:39.137Z,18.25
2019-02-11T04:36:35.818Z,18.31
2019-02-11T04:37:32.406Z,18.31
2019-02-11T04:38:29.001Z,18.31
2019-02-11T04:39:25.635Z,18.25
2019-02-11T04:40:22.218Z,18.25
2019-02-11T04:41:18.826Z,18.25
2019-02-11T04:42:15.697Z,18.25
2019-02-11T04:43:12.321Z,18.25
2019-02-11T04:44:08.948Z,18.25
2019-02-11T04:45:05.532Z,18.25
2019-02-11T04:46:02.129Z,18.25
2019-02-11T04:46:58.836Z,18.25
2019-02-11T04:47:55.525Z,18.25
2019-02-11T04:48:52.194Z,18.25
2019-02-11T04:49:48.793Z,18.25
2019-02-11T04:50:45.380Z,18.25
2019-02-11T04:51:42.076Z,18.25
2019-02-11T04:52:38.746Z,18.25
2019-02-11T04:53:35.356Z,18.25
2019-02-11T04:54:32.092Z,18.25
2019-02-11T04:55:28.689Z,18.25
2019-02-11T04:56:25.286Z,18.19
2019-02-11T04:57:21.873Z,18.19
2019-02-11T04:58:18.478Z,18.19
2019-02-11T04:59:15.069Z,18.19
2019-02-11T05:00:12.009Z,18.12
2019-02-11T05:01:08.592Z,18.12
2019-02-11T05:02:05.194Z,18.12
2019-02-11T05:03:01.847Z,18.12
2019-02-11T05:03:58.643Z,18.12
2019-02-11T05:04:55.260Z,18.06
2019-02-11T05:05:51.945Z,18.06
2019-02-11T05:06:48.539Z,18.00
2019-02-11T05:07:45.129Z,18.00
2019-02-11T05:08:42.057Z,17.94
2019-02-11T05:09:38.705Z,17.94
2019-02-11T05:10:35.306Z,17.87
2019-02-11T05:11:31.905Z,17.75
2019-02-11T05:12:28.753Z,17.69
2019-02-11T05:13:25.454Z,17.56
2019-02-11T05:14:22.048Z,17.44
2019-02-11T05:15:18.756Z,17.31
2019-02-11T05:16:15.497Z,17.19
2019-02-11T05:17:12.142Z,17.06
2019-02-11T05:18:08.856Z,17.00
2019-02-11T05:19:05.533Z,16.94
2019-02-11T05:20:02.292Z,16.87
2019-02-11T05:20:59.041Z,16.87
2019-02-11T05:21:55.816Z,16.81
2019-02-11T05:22:52.516Z,16.81
2019-02-11T05:23:49.222Z,16.81
2019-02-11T05:24:45.804Z,16.81
2019-02-11T05:25:42.416Z,16.81
2019-02-11T05:26:39.009Z,16.81
2019-02-11T05:27:35.645Z,16.81
2019-02-11T05:28:32.569Z,16.81
2019-02-11T05:29:29.199Z,16.81
2019-02-11T05:30:26.038Z,16.75
2019-02-11T05:31:22.644Z,16.75
2019-02-11T05:32:19.345Z,16.81
2019-02-11T05:33:16.245Z,16.81
2019-02-11T05:34:12.934Z,16.81
2019-02-11T05:35:09.549Z,16.81
2019-02-11T05:36:06.328Z,16.87
2019-02-11T05:37:03.001Z,16.87
2019-02-11T05:37:59.616Z,16.94
2019-02-11T05:38:56.214Z,17.06
2019-02-11T05:39:52.802Z,17.12
2019-02-11T05:40:49.432Z,17.31
2019-02-11T05:41:46.225Z,17.56
2019-02-11T05:42:42.867Z,17.81
2019-02-11T05:43:39.457Z,18.12
2019-02-11T05:44:36.054Z,18.44
2019-02-11T05:45:32.662Z,19.00
2019-02-11T05:46:29.251Z,23.19
2019-02-11T05:47:25.834Z,24.19
2019-02-11T05:48:22.459Z,24.81
2019-02-11T05:49:19.059Z,29.31
2019-02-11T05:50:15.713Z,33.13
2019-02-11T05:51:12.398Z,34.69
2019-02-11T05:52:09.270Z,34.81
2019-02-11T05:53:05.897Z,34.38
2019-02-11T05:54:02.553Z,34.13
2019-02-11T05:54:59.137Z,34.31
2019-02-11T05:55:55.754Z,34.94
2019-02-11T05:56:52.410Z,35.81
2019-02-11T05:57:49.037Z,36.50
2019-02-11T05:58:46.080Z,36.56
2019-02-11T05:59:42.684Z,36.38
2019-02-11T06:00:39.266Z,36.19
2019-02-11T06:01:35.973Z,36.06
2019-02-11T06:02:32.670Z,35.94
2019-02-11T06:03:29.263Z,35.94
2019-02-11T06:04:25.865Z,36.00
2019-02-11T06:05:22.487Z,36.06
2019-02-11T06:06:19.094Z,36.13
2019-02-11T06:07:15.722Z,36.25
2019-02-11T06:08:12.591Z,36.25
2019-02-11T06:09:09.252Z,36.13
2019-02-11T06:10:05.853Z,36.13
2019-02-11T06:11:02.450Z,36.25
2019-02-11T06:11:59.037Z,36.25
2019-02-11T06:12:55.679Z,36.25
2019-02-11T06:13:52.620Z,36.31
2019-02-11T06:14:49.213Z,36.31
2019-02-11T06:15:46.011Z,36.38
2019-02-11T06:16:42.685Z,36.38
2019-02-11T06:17:39.301Z,36.31
2019-02-11T06:18:35.914Z,36.38
2019-02-11T06:19:32.536Z,36.31
2019-02-11T06:20:29.140Z,36.38
2019-02-11T06:21:25.830Z,36.31
2019-02-11T06:22:22.825Z,36.25
2019-02-11T06:23:19.442Z,36.19
2019-02-11T06:24:16.220Z,35.81
2019-02-11T06:25:12.790Z,35.19
2019-02-11T06:26:09.373Z,34.19
2019-02-11T06:27:06.002Z,32.88
2019-02-11T06:28:02.730Z,31.75
2019-02-11T06:28:59.431Z,31.19
2019-02-11T06:29:56.125Z,31.62
2019-02-11T06:30:52.809Z,32.81
2019-02-11T06:31:49.407Z,34.19
2019-02-11T06:32:46.120Z,35.38
2019-02-11T06:33:42.852Z,36.31
2019-02-11T06:34:39.438Z,37.00
2019-02-11T06:35:36.053Z,37.44
2019-02-11T06:36:32.645Z,37.50
2019-02-11T06:37:29.251Z,37.38
2019-02-11T06:38:25.875Z,37.25
2019-02-11T06:39:22.465Z,37.13
2019-02-11T06:40:19.051Z,37.06
2019-02-11T06:41:15.658Z,36.94
2019-02-11T06:42:12.606Z,36.88
2019-02-11T06:43:09.222Z,36.81
2019-02-11T06:44:06.133Z,36.81
2019-02-11T06:45:02.743Z,36.75
2019-02-11T06:45:59.452Z,36.75
2019-02-11T06:46:56.133Z,36.69
2019-02-11T06:47:52.934Z,36.69
2019-02-11T06:48:49.554Z,36.63
2019-02-11T06:49:46.462Z,36.63
2019-02-11T06:50:43.133Z,36.56
2019-02-11T06:51:39.721Z,36.50
2019-02-11T06:52:36.335Z,36.44
2019-02-11T06:53:33.325Z,36.13
2019-02-11T06:54:29.961Z,35.75
2019-02-11T06:55:26.892Z,35.13
2019-02-11T06:56:23.493Z,34.38
2019-02-11T06:57:20.073Z,33.44
2019-02-11T06:58:16.669Z,32.50
2019-02-11T06:59:13.280Z,31.69
2019-02-11T07:00:09.862Z,31.44
2019-02-11T07:01:06.454Z,32.13
2019-02-11T07:02:03.045Z,33.31
2019-02-11T07:02:59.639Z,34.56
2019-02-11T07:03:56.267Z,35.69
2019-02-11T07:04:53.094Z,36.63
2019-02-11T07:05:49.772Z,37.31
2019-02-11T07:06:46.628Z,37.56
2019-02-11T07:07:43.225Z,37.50
2019-02-11T07:08:39.825Z,37.38
2019-02-11T07:09:36.457Z,37.25
2019-02-11T07:10:33.046Z,37.13
2019-02-11T07:11:29.652Z,37.00
2019-02-11T07:12:26.233Z,36.94
2019-02-11T07:13:22.829Z,36.88
2019-02-11T07:14:19.442Z,36.81
2019-02-11T07:15:21.751Z,36.75
2019-02-11T07:16:14.899Z,36.69
2019-02-11T07:17:11.553Z,36.69
2019-02-11T07:18:08.333Z,36.63
2019-02-11T07:19:04.965Z,36.50
2019-02-11T07:20:01.570Z,36.31
2019-02-11T07:20:58.181Z,36.06
2019-02-11T07:21:54.782Z,35.56
2019-02-11T07:22:51.365Z,34.88
2019-02-11T07:23:47.974Z,33.94
2019-02-11T07:24:44.955Z,32.88
2019-02-11T07:25:41.648Z,32.00
2019-02-11T07:26:38.474Z,31.56
2019-02-11T07:27:35.153Z,32.00
2019-02-11T07:28:31.765Z,33.00
2019-02-11T07:29:28.348Z,34.25
2019-02-11T07:30:24.978Z,35.44
2019-02-11T07:31:21.587Z,36.44
2019-02-11T07:32:18.205Z,37.19
2019-02-11T07:33:14.957Z,37.56
2019-02-11T07:34:11.586Z,37.56
2019-02-11T07:35:08.218Z,37.44
2019-02-11T07:36:04.814Z,37.31
2019-02-11T07:37:01.457Z,37.19
2019-02-11T07:37:58.115Z,37.06
2019-02-11T07:38:54.782Z,36.94
2019-02-11T07:39:51.557Z,36.88
2019-02-11T07:40:48.162Z,36.81
2019-02-11T07:42:04.721Z,36.75
2019-02-11T07:43:13.932Z,36.69
2019-02-11T07:44:24.569Z,36.56
2019-02-11T07:45:30.175Z,36.38
2019-02-11T07:46:36.474Z,36.06
2019-02-11T07:47:33.165Z,35.31
2019-02-11T07:48:29.803Z,34.50
2019-02-11T07:49:26.429Z,33.50
2019-02-11T07:50:23.059Z,32.50
2019-02-11T07:51:19.698Z,31.81
2019-02-11T07:52:16.525Z,31.81
2019-02-11T07:53:13.137Z,32.69
2019-02-11T07:54:09.735Z,33.88
2019-02-11T07:55:06.349Z,35.06
2019-02-11T07:56:02.985Z,36.19
2019-02-11T07:56:59.587Z,37.06
2019-02-11T07:57:56.177Z,37.56
2019-02-11T07:58:53.180Z,37.63
2019-02-11T07:59:49.792Z,37.50
2019-02-11T08:00:46.603Z,37.38
2019-02-11T08:01:43.212Z,37.25
2019-02-11T08:02:39.904Z,37.13
2019-02-11T08:03:36.498Z,37.06
2019-02-11T08:04:33.113Z,36.94
2019-02-11T08:05:29.740Z,36.88
2019-02-11T08:06:26.354Z,36.81
2019-02-11T08:07:23.096Z,36.75
2019-02-11T08:08:19.717Z,36.63
2019-02-11T08:09:16.309Z,36.44
2019-02-11T08:10:12.898Z,36.13
2019-02-11T08:11:09.521Z,35.69
2019-02-11T08:12:06.173Z,35.00
2019-02-11T08:13:02.917Z,34.19
2019-02-11T08:13:59.510Z,33.25
2019-02-11T08:14:56.311Z,32.38
2019-02-11T08:15:53.003Z,31.81
2019-02-11T08:16:50.208Z,32.00
2019-02-11T08:17:46.942Z,33.00
2019-02-11T08:18:43.628Z,34.19
2019-02-11T08:19:40.238Z,35.38
2019-02-11T08:20:36.937Z,36.44
2019-02-11T08:21:33.622Z,37.25
2019-02-11T08:22:30.222Z,37.63
2019-02-11T08:23:26.833Z,37.63
2019-02-11T08:24:23.523Z,37.50
2019-02-11T08:25:20.265Z,37.31
2019-02-11T08:26:16.873Z,37.19
2019-02-11T08:27:13.502Z,37.06
2019-02-11T08:28:10.197Z,36.94
2019-02-11T08:29:06.801Z,36.88
2019-02-11T08:30:03.411Z,36.81
2019-02-11T08:31:00.095Z,36.75
2019-02-11T08:31:56.838Z,36.56
2019-02-11T08:32:53.485Z,36.44
2019-02-11T08:33:50.085Z,36.13
2019-02-11T08:34:46.678Z,35.69
2019-02-11T08:35:43.627Z,35.06
2019-02-11T08:36:40.230Z,34.25
2019-02-11T08:37:36.846Z,33.31
2019-02-11T08:38:33.424Z,32.38
2019-02-11T08:39:30.013Z,31.81
2019-02-11T08:40:26.609Z,32.00
2019-02-11T08:41:23.496Z,32.81
2019-02-11T08:42:20.113Z,33.94
2019-02-11T08:43:16.970Z,35.13
2019-02-11T08:44:13.638Z,36.13
2019-02-11T08:45:10.254Z,37.00
2019-02-11T08:46:06.961Z,37.50
2019-02-11T08:47:03.692Z,37.56
2019-02-11T08:48:00.323Z,37.44
2019-02-11T08:48:56.947Z,37.25
2019-02-11T08:49:53.637Z,37.06
2019-02-11T08:50:50.263Z,36.94
2019-02-11T08:51:46.876Z,36.81
2019-02-11T08:52:43.632Z,36.75
2019-02-11T08:53:40.329Z,36.69
2019-02-11T08:54:36.934Z,36.50
2019-02-11T08:55:33.522Z,36.19
2019-02-11T08:56:30.177Z,35.81
2019-02-11T08:57:26.907Z,35.31
2019-02-11T08:58:23.651Z,34.63
2019-02-11T08:59:20.309Z,33.88
2019-02-11T09:00:16.949Z,33.00
2019-02-11T09:01:14.027Z,32.19
2019-02-11T09:02:10.741Z,31.75
2019-02-11T09:03:07.376Z,32.00
2019-02-11T09:04:04.049Z,32.94
2019-02-11T09:05:00.665Z,34.13
2019-02-11T09:05:57.585Z,35.31
2019-02-11T09:06:54.295Z,36.38
2019-02-11T09:07:51.011Z,37.19
2019-02-11T09:08:47.785Z,37.50
2019-02-11T09:09:44.503Z,37.44
2019-02-11T09:10:41.097Z,37.31
2019-02-11T09:11:37.713Z,37.13
2019-02-11T09:12:34.409Z,37.00
2019-02-11T09:13:31.139Z,36.88
2019-02-11T09:14:27.756Z,36.75
2019-02-11T09:15:24.370Z,36.69
2019-02-11T09:16:21.077Z,36.50
2019-02-11T09:17:17.913Z,36.31
2019-02-11T09:18:14.557Z,36.00
2019-02-11T09:19:11.289Z,35.63
2019-02-11T09:20:08.005Z,35.00
2019-02-11T09:21:04.639Z,34.31
2019-02-11T09:22:07.316Z,33.44
2019-02-11T09:22:59.833Z,32.56
2019-02-11T09:23:56.493Z,31.87
2019-02-11T09:24:53.225Z,31.69
2019-02-11T09:25:49.942Z,32.25
2019-02-11T09:26:46.582Z,33.25
2019-02-11T09:27:43.202Z,34.44
2019-02-11T09:28:40.174Z,35.50
2019-02-11T09:29:36.789Z,36.50
2019-02-11T09:30:33.431Z,37.19
2019-02-11T09:31:30.034Z,37.31
2019-02-11T09:32:26.638Z,37.19
2019-02-11T09:33:23.257Z,37.00
2019-02-11T09:34:20.288Z,36.81
2019-02-11T09:35:16.938Z,36.69
2019-02-11T09:36:13.657Z,36.56
2019-02-11T09:37:10.366Z,36.44
2019-02-11T09:38:06.997Z,36.19
2019-02-11T09:39:05.045Z,35.88
2019-02-11T09:40:01.861Z,35.56
2019-02-11T09:40:58.583Z,35.06
2019-02-11T09:41:55.287Z,34.44
2019-02-11T09:42:52.092Z,33.75
2019-02-11T09:43:48.705Z,32.94
2019-02-11T09:44:45.385Z,32.19
2019-02-11T09:45:42.461Z,31.62
2019-02-11T09:46:39.065Z,31.69
2019-02-11T09:47:35.658Z,32.38
2019-02-11T09:48:32.549Z,33.38
2019-02-11T09:49:29.163Z,34.56
2019-02-11T09:50:26.131Z,35.63
2019-02-11T09:51:22.823Z,36.56
2019-02-11T09:52:19.434Z,37.13
2019-02-11T09:53:16.298Z,37.19
2019-02-11T09:54:12.945Z,37.06
2019-02-11T09:55:09.887Z,36.88
2019-02-11T09:56:06.597Z,36.56
2019-02-11T09:57:03.248Z,36.19
2019-02-11T09:58:00.050Z,35.75
2019-02-11T09:58:56.766Z,35.19
2019-02-11T09:59:53.393Z,34.56
2019-02-11T10:00:50.330Z,33.81
2019-02-11T10:01:46.982Z,33.06
2019-02-11T10:02:43.664Z,32.31
2019-02-11T10:03:40.397Z,31.75
2019-02-11T10:04:37.094Z,31.31
2019-02-11T10:05:33.713Z,30.88
2019-02-11T10:06:30.359Z,30.44
2019-02-11T10:07:27.049Z,29.94
2019-02-11T10:08:23.760Z,29.44
2019-02-11T10:09:20.429Z,29.00
2019-02-11T10:10:17.062Z,28.62
2019-02-11T10:11:13.661Z,28.31
2019-02-11T10:12:10.293Z,28.06
2019-02-11T10:13:07.074Z,27.87
2019-02-11T10:14:03.699Z,27.75
2019-02-11T10:15:00.437Z,27.62
2019-02-11T10:15:57.165Z,27.50
2019-02-11T10:16:53.850Z,27.37
2019-02-11T10:17:50.469Z,27.31
2019-02-11T10:18:47.077Z,27.19
2019-02-11T10:19:43.784Z,27.19
2019-02-11T10:20:40.666Z,27.13
2019-02-11T10:21:37.360Z,27.00
2019-02-11T10:22:33.959Z,27.00
2019-02-11T10:23:30.562Z,26.94
2019-02-11T10:24:27.179Z,26.87
2019-02-11T10:25:23.979Z,26.75
2019-02-11T10:26:20.698Z,26.75
2019-02-11T10:27:17.332Z,26.69
2019-02-11T10:28:13.931Z,26.62
2019-02-11T10:29:10.664Z,26.56
2019-02-11T10:30:07.289Z,26.50
2019-02-11T10:31:03.970Z,26.44
2019-02-11T10:32:00.581Z,26.37
2019-02-11T10:32:57.203Z,26.31
2019-02-11T10:33:54.025Z,26.25
2019-02-11T10:34:50.668Z,26.19
2019-02-11T10:35:47.358Z,26.12
2019-02-11T10:36:44.033Z,26.06
2019-02-11T10:37:40.894Z,26.00
2019-02-11T10:38:37.525Z,25.94
2019-02-11T10:39:34.402Z,25.88
2019-02-11T10:40:31.037Z,25.81
2019-02-11T10:41:27.741Z,25.75
2019-02-11T10:42:24.362Z,25.75
2019-02-11T10:43:21.202Z,25.69
2019-02-11T10:44:17.833Z,25.62
2019-02-11T10:45:14.553Z,25.56
2019-02-11T10:46:11.253Z,25.50
2019-02-11T10:47:07.961Z,25.50
2019-02-11T10:48:04.634Z,25.44
2019-02-11T10:49:01.273Z,25.37
2019-02-11T10:49:57.976Z,25.31
2019-02-11T10:50:54.688Z,25.31
2019-02-11T10:51:51.349Z,25.25
2019-02-11T10:52:47.954Z,25.19
2019-02-11T10:53:44.582Z,25.12
2019-02-11T10:54:41.169Z,25.12
2019-02-11T10:55:37.913Z,25.06
2019-02-11T10:56:34.649Z,25.00
2019-02-11T10:57:31.268Z,25.00
2019-02-11T10:58:27.895Z,24.94
2019-02-11T10:59:24.937Z,24.94
2019-02-11T11:00:21.625Z,24.87
2019-02-11T11:01:18.353Z,24.81
2019-02-11T11:02:14.954Z,24.81
2019-02-11T11:03:11.577Z,24.75
2019-02-11T11:04:08.203Z,24.69
2019-02-11T11:05:04.829Z,24.69
2019-02-11T11:06:01.515Z,24.63
2019-02-11T11:06:58.293Z,24.63
2019-02-11T11:07:54.918Z,24.56
2019-02-11T11:08:51.513Z,24.56
2019-02-11T11:09:48.113Z,24.50
2019-02-11T11:10:44.738Z,24.50
2019-02-11T11:11:41.350Z,24.44
2019-02-11T11:12:38.203Z,24.44
2019-02-11T11:13:34.834Z,24.37
2019-02-11T11:14:31.531Z,24.31
2019-02-11T11:15:29.078Z,24.31
2019-02-11T11:16:29.546Z,24.25
2019-02-11T11:17:24.350Z,24.25
2019-02-11T11:18:21.085Z,24.25
2019-02-11T11:19:17.696Z,24.19
2019-02-11T11:20:14.298Z,24.19
2019-02-11T11:21:10.906Z,24.12
2019-02-11T11:22:07.510Z,24.12
2019-02-11T11:23:04.374Z,24.06
2019-02-11T11:24:01.054Z,24.06
2019-02-11T11:24:57.669Z,24.00
2019-02-11T11:25:54.348Z,24.00
2019-02-11T11:26:51.185Z,24.00
2019-02-11T11:27:47.799Z,23.94
2019-02-11T11:28:44.750Z,23.94
2019-02-11T11:29:41.357Z,23.87
2019-02-11T11:30:37.949Z,23.87
2019-02-11T11:31:34.548Z,23.87
2019-02-11T11:32:31.134Z,23.81
2019-02-11T11:33:27.763Z,23.81
2019-02-11T11:34:24.382Z,23.75
2019-02-11T11:35:21.112Z,23.75
2019-02-11T11:36:17.777Z,23.69
2019-02-11T11:37:14.378Z,23.69
2019-02-11T11:38:10.988Z,23.69
2019-02-11T11:39:14.827Z,23.62
2019-02-11T11:40:11.448Z,23.62
2019-02-11T11:41:08.140Z,23.56
2019-02-11T11:42:05.165Z,23.56
2019-02-11T11:43:01.866Z,23.56
2019-02-11T11:43:58.530Z,23.50
2019-02-11T11:44:55.233Z,23.50
2019-02-11T11:45:51.842Z,23.44
2019-02-11T11:46:48.464Z,23.44
2019-02-11T11:47:45.073Z,23.44
2019-02-11T11:48:41.729Z,23.38
2019-02-11T11:49:38.350Z,23.38
2019-02-11T11:50:35.129Z,23.38
2019-02-11T11:51:31.827Z,23.31
2019-02-11T11:52:28.606Z,23.31
2019-02-11T11:53:25.306Z,23.31
2019-02-11T11:54:21.947Z,23.25
2019-02-11T11:55:18.562Z,23.25
2019-02-11T11:56:15.447Z,23.44
2019-02-11T11:57:12.174Z,23.69
2019-02-11T11:58:08.882Z,24.12
2019-02-11T11:59:05.495Z,24.69
2019-02-11T12:00:02.172Z,25.75
2019-02-11T12:00:58.817Z,27.62
2019-02-11T12:01:55.447Z,29.69
2019-02-11T12:03:01.507Z,31.56
2019-02-11T12:03:50.794Z,33.13
2019-02-11T12:04:47.493Z,34.31
2019-02-11T12:05:44.193Z,35.13
2019-02-11T12:06:40.817Z,35.75
2019-02-11T12:07:37.498Z,36.25
2019-02-11T12:08:34.214Z,36.69
2019-02-11T12:09:30.925Z,37.00
2019-02-11T12:10:27.552Z,37.31
2019-02-11T12:11:24.161Z,37.56